createdAt,value
2018-10-16T00:00:07.387Z,97.20
2018-10-16T00:00:41.270Z,97.10
2018-10-16T00:01:15.421Z,97.20
2018-10-16T00:01:49.641Z,97.30
2018-10-16T00:02:23.809Z,97.30
2018-10-16T00:02:57.644Z,97.40
2018-10-16T00:03:31.726Z,97.40
2018-10-16T00:04:06.174Z,97.40
2018-10-16T00:04:40.402Z,97.40
2018-10-16T00:05:15.018Z,97.40
2018-10-16T00:05:48.862Z,97.40
2018-10-16T00:06:23.052Z,97.40
2018-10-16T00:06:56.905Z,97.40
2018-10-16T00:07:30.726Z,97.50
2018-10-16T00:08:04.917Z,97.50
2018-10-16T00:08:39.102Z,97.50
2018-10-16T00:09:13.308Z,97.50
2018-10-16T00:09:47.510Z,97.40
2018-10-16T00:10:27.138Z,97.40
2018-10-16T00:11:01.088Z,97.40
2018-10-16T00:11:35.253Z,97.50
2018-10-16T00:12:09.470Z,97.40
2018-10-16T00:12:43.637Z,97.40
2018-10-16T00:13:17.480Z,97.40
2018-10-16T00:13:51.635Z,97.30
2018-10-16T00:14:25.816Z,97.30
2018-10-16T00:15:00.034Z,97.40
2018-10-16T00:15:33.940Z,97.40
2018-10-16T00:16:07.798Z,97.40
2018-10-16T00:16:41.640Z,97.50
2018-10-16T00:17:15.517Z,97.50
2018-10-16T00:17:49.336Z,97.60
2018-10-16T00:18:23.158Z,97.50
2018-10-16T00:18:57.656Z,97.60
2018-10-16T00:19:32.310Z,97.60
2018-10-16T00:20:06.608Z,97.60
2018-10-16T00:20:41.316Z,97.60
2018-10-16T00:21:15.350Z,97.60
2018-10-16T00:21:49.535Z,97.60
2018-10-16T00:22:23.368Z,97.60
2018-10-16T00:22:57.220Z,97.60
2018-10-16T00:23:31.400Z,97.60
2018-10-16T00:24:05.988Z,97.50
2018-10-16T00:24:40.152Z,97.50
2018-10-16T00:25:16.200Z,97.50
2018-10-16T00:25:50.072Z,97.50
2018-10-16T00:26:23.930Z,97.50
2018-10-16T00:26:58.102Z,97.40
2018-10-16T00:27:32.248Z,97.60
2018-10-16T00:28:06.368Z,97.40
2018-10-16T00:28:40.216Z,97.40
2018-10-16T00:29:14.096Z,97.40
2018-10-16T00:29:47.926Z,97.50
2018-10-16T00:30:21.792Z,97.50
2018-10-16T00:30:55.670Z,97.50
2018-10-16T00:31:29.572Z,97.40
2018-10-16T00:32:03.376Z,97.60
2018-10-16T00:32:37.247Z,97.60
2018-10-16T00:33:11.278Z,97.70
2018-10-16T00:33:45.470Z,97.60
2018-10-16T00:34:19.368Z,97.70
2018-10-16T00:34:53.492Z,97.60
2018-10-16T00:35:27.778Z,97.50
2018-10-16T00:36:01.874Z,97.50
2018-10-16T00:36:36.772Z,97.40
2018-10-16T00:37:11.266Z,97.40
2018-10-16T00:37:45.145Z,97.40
2018-10-16T00:38:19.108Z,97.50
2018-10-16T00:38:52.948Z,97.60
2018-10-16T00:39:26.772Z,97.70
2018-10-16T00:40:00.653Z,97.60
2018-10-16T00:40:34.528Z,97.40
2018-10-16T00:41:08.384Z,97.50
2018-10-16T00:41:43.120Z,97.50
2018-10-16T00:42:17.288Z,97.50
2018-10-16T00:42:51.148Z,97.50
2018-10-16T00:43:25.000Z,97.60
2018-10-16T00:43:58.814Z,97.60
2018-10-16T00:44:33.188Z,97.80
2018-10-16T00:45:08.682Z,97.80
2018-10-16T00:45:42.524Z,97.70
2018-10-16T00:46:17.123Z,97.80
2018-10-16T00:46:50.952Z,97.80
2018-10-16T00:47:25.110Z,97.80
2018-10-16T00:47:59.401Z,97.80
2018-10-16T00:48:33.208Z,97.90
2018-10-16T00:49:07.971Z,97.90
2018-10-16T00:49:42.372Z,98.00
2018-10-16T00:50:16.573Z,98.10
2018-10-16T00:50:51.098Z,98.10
2018-10-16T00:51:25.074Z,98.10
2018-10-16T00:51:58.906Z,98.10
2018-10-16T00:52:32.742Z,98.20
2018-10-16T00:53:06.560Z,98.30
2018-10-16T00:53:40.760Z,98.20
2018-10-16T00:54:15.264Z,98.30
2018-10-16T00:54:49.773Z,98.20
2018-10-16T00:55:24.267Z,98.20
2018-10-16T00:55:58.110Z,98.20
2018-10-16T00:56:32.261Z,98.20
2018-10-16T00:57:06.441Z,98.20
2018-10-16T00:57:40.980Z,98.20
2018-10-16T00:58:15.176Z,98.30
2018-10-16T00:58:49.331Z,98.30
2018-10-16T00:59:23.144Z,98.20
2018-10-16T00:59:57.533Z,98.20
2018-10-16T01:00:32.034Z,98.20
2018-10-16T01:01:06.607Z,98.20
2018-10-16T01:01:40.784Z,98.10
2018-10-16T01:02:15.292Z,98.20
2018-10-16T01:02:49.128Z,98.20
2018-10-16T01:03:22.968Z,98.20
2018-10-16T01:03:56.894Z,98.10
2018-10-16T01:04:30.715Z,98.00
2018-10-16T01:05:05.656Z,98.00
2018-10-16T01:05:40.160Z,97.90
2018-10-16T01:06:14.020Z,97.90
2018-10-16T01:06:48.180Z,97.90
2018-10-16T01:07:22.002Z,97.90
2018-10-16T01:07:56.140Z,98.30
2018-10-16T01:08:30.005Z,98.00
2018-10-16T01:09:07.858Z,98.10
2018-10-16T01:09:42.360Z,98.30
2018-10-16T01:10:16.558Z,98.30
2018-10-16T01:10:50.719Z,98.30
2018-10-16T01:11:24.672Z,98.20
2018-10-16T01:11:58.780Z,98.20
2018-10-16T01:12:33.000Z,98.20
2018-10-16T01:13:06.812Z,98.20
2018-10-16T01:13:41.264Z,98.20
2018-10-16T01:14:15.325Z,98.10
2018-10-16T01:14:49.165Z,98.10
2018-10-16T01:15:22.980Z,98.00
2018-10-16T01:15:56.812Z,98.10
2018-10-16T01:16:31.016Z,98.10
2018-10-16T01:17:05.145Z,98.10
2018-10-16T01:17:39.780Z,98.10
2018-10-16T01:18:13.713Z,98.00
2018-10-16T01:18:48.112Z,98.00
2018-10-16T01:19:22.420Z,98.00
2018-10-16T01:19:56.582Z,98.20
2018-10-16T01:20:30.918Z,98.20
2018-10-16T01:21:05.552Z,98.20
2018-10-16T01:21:39.388Z,98.20
2018-10-16T01:22:13.696Z,98.20
2018-10-16T01:22:47.532Z,98.10
2018-10-16T01:23:21.364Z,98.00
2018-10-16T01:23:55.211Z,98.00
2018-10-16T01:24:29.102Z,98.00
2018-10-16T01:25:02.945Z,98.00
2018-10-16T01:25:36.769Z,98.00
2018-10-16T01:26:10.660Z,98.10
2018-10-16T01:26:44.880Z,98.40
2018-10-16T01:27:19.064Z,98.40
2018-10-16T01:27:52.902Z,98.10
2018-10-16T01:28:26.741Z,98.10
2018-10-16T01:29:00.570Z,98.10
2018-10-16T01:29:34.416Z,98.10
2018-10-16T01:30:08.994Z,98.20
2018-10-16T01:30:43.422Z,98.10
2018-10-16T01:31:17.270Z,98.10
2018-10-16T01:31:51.436Z,98.10
2018-10-16T01:32:25.616Z,98.10
2018-10-16T01:33:00.922Z,98.10
2018-10-16T01:33:34.791Z,98.10
2018-10-16T01:34:08.740Z,98.10
2018-10-16T01:34:42.618Z,98.20
2018-10-16T01:35:17.173Z,98.30
2018-10-16T01:35:51.008Z,98.30
2018-10-16T01:36:24.860Z,98.50
2018-10-16T01:36:59.136Z,98.60
2018-10-16T01:37:32.970Z,98.50
2018-10-16T01:38:07.156Z,98.50
2018-10-16T01:38:41.657Z,98.50
2018-10-16T01:39:15.764Z,98.50
2018-10-16T01:39:49.614Z,98.30
2018-10-16T01:40:23.710Z,98.60
2018-10-16T01:40:57.832Z,98.50
2018-10-16T01:41:31.666Z,98.50
2018-10-16T01:42:06.380Z,98.50
2018-10-16T01:42:40.376Z,98.30
2018-10-16T01:43:14.488Z,98.40
2018-10-16T01:43:48.586Z,98.30
2018-10-16T01:44:22.394Z,98.20
2018-10-16T01:44:56.224Z,98.20
2018-10-16T01:45:30.029Z,98.10
2018-10-16T01:46:04.178Z,98.10
2018-10-16T01:46:37.980Z,98.10
2018-10-16T01:47:12.111Z,98.20
2018-10-16T01:47:45.940Z,98.10
2018-10-16T01:48:19.775Z,98.30
2018-10-16T01:48:53.601Z,98.10
2018-10-16T01:49:27.416Z,98.10
2018-10-16T01:50:01.270Z,98.10
2018-10-16T01:50:35.088Z,98.10
2018-10-16T01:51:08.910Z,98.10
2018-10-16T01:51:42.744Z,98.10
2018-10-16T01:52:16.618Z,98.20
2018-10-16T01:52:50.783Z,98.20
2018-10-16T01:53:24.882Z,98.20
2018-10-16T01:53:58.984Z,98.20
2018-10-16T01:54:32.804Z,98.20
2018-10-16T01:55:06.874Z,98.20
2018-10-16T01:55:40.696Z,98.20
2018-10-16T01:56:14.848Z,98.10
2018-10-16T01:56:49.020Z,98.10
2018-10-16T01:57:23.237Z,98.10
2018-10-16T01:57:57.336Z,97.70
2018-10-16T01:58:31.496Z,98.00
2018-10-16T01:59:06.119Z,98.00
2018-10-16T01:59:39.938Z,98.00
2018-10-16T02:00:13.768Z,98.00
2018-10-16T02:00:48.268Z,98.10
2018-10-16T02:01:22.432Z,98.20
2018-10-16T02:01:56.286Z,98.30
2018-10-16T02:02:30.458Z,98.50
2018-10-16T02:03:05.268Z,98.30
2018-10-16T02:03:39.716Z,98.20
2018-10-16T02:04:13.596Z,98.20
2018-10-16T02:04:47.420Z,98.20
2018-10-16T02:05:21.607Z,98.20
2018-10-16T02:05:56.171Z,98.10
2018-10-16T02:06:30.336Z,98.10
2018-10-16T02:07:04.321Z,98.20
2018-10-16T02:07:38.499Z,98.20
2018-10-16T02:08:12.341Z,98.30
2018-10-16T02:08:46.832Z,98.30
2018-10-16T02:09:22.308Z,98.40
2018-10-16T02:09:56.125Z,98.30
2018-10-16T02:10:30.217Z,98.30
2018-10-16T02:11:04.044Z,98.20
2018-10-16T02:11:38.147Z,98.20
2018-10-16T02:12:12.603Z,98.20
2018-10-16T02:12:46.767Z,98.20
2018-10-16T02:13:21.212Z,98.30
2018-10-16T02:13:55.695Z,98.40
2018-10-16T02:14:30.149Z,98.50
2018-10-16T02:15:04.863Z,98.50
2018-10-16T02:15:38.937Z,98.80
2018-10-16T02:16:13.401Z,98.60
2018-10-16T02:16:47.257Z,98.70
2018-10-16T02:17:21.392Z,98.70
2018-10-16T02:17:55.255Z,98.70
2018-10-16T02:18:29.113Z,98.70
2018-10-16T02:19:03.223Z,98.70
2018-10-16T02:19:37.053Z,98.90
2018-10-16T02:20:11.525Z,98.90
2018-10-16T02:20:45.342Z,98.90
2018-10-16T02:21:19.480Z,98.90
2018-10-16T02:21:53.328Z,99.00
2018-10-16T02:22:27.829Z,99.00
2018-10-16T02:23:01.655Z,99.00
2018-10-16T02:23:35.461Z,99.00
2018-10-16T02:24:09.320Z,99.00
2018-10-16T02:24:43.152Z,99.10
2018-10-16T02:25:16.977Z,99.10
2018-10-16T02:25:50.801Z,99.20
2018-10-16T02:26:25.431Z,99.30
2018-10-16T02:26:59.593Z,99.30
2018-10-16T02:27:33.440Z,99.30
2018-10-16T02:28:07.629Z,99.30
2018-10-16T02:28:41.794Z,99.30
2018-10-16T02:29:15.641Z,99.30
2018-10-16T02:29:49.809Z,99.30
2018-10-16T02:30:23.986Z,99.30
2018-10-16T02:30:57.799Z,99.30
2018-10-16T02:31:31.961Z,99.30
2018-10-16T02:32:06.787Z,99.30
2018-10-16T02:32:40.931Z,99.40
2018-10-16T02:33:14.847Z,99.30
2018-10-16T02:33:48.665Z,99.20
2018-10-16T02:34:22.809Z,99.10
2018-10-16T02:34:57.173Z,99.10
2018-10-16T02:35:31.341Z,99.00
2018-10-16T02:36:05.337Z,99.00
2018-10-16T02:36:39.485Z,99.00
2018-10-16T02:37:13.345Z,99.20
2018-10-16T02:37:47.510Z,99.30
2018-10-16T02:38:21.413Z,99.40
2018-10-16T02:38:55.497Z,99.40
2018-10-16T02:39:29.677Z,99.50
2018-10-16T02:40:03.539Z,99.50
2018-10-16T02:40:37.714Z,99.50
2018-10-16T02:41:11.807Z,99.60
2018-10-16T02:41:45.929Z,99.60
2018-10-16T02:42:20.027Z,99.60
2018-10-16T02:42:54.226Z,99.70
2018-10-16T02:43:29.321Z,99.80
2018-10-16T02:44:03.145Z,99.90
2018-10-16T02:44:37.585Z,99.90
2018-10-16T02:45:11.939Z,99.90
2018-10-16T02:45:45.787Z,99.80
2018-10-16T02:46:19.625Z,99.90
2018-10-16T02:46:53.469Z,99.80
2018-10-16T02:47:27.581Z,99.80
2018-10-16T02:48:01.415Z,99.90
2018-10-16T02:48:35.561Z,99.90
2018-10-16T02:49:10.349Z,99.90
2018-10-16T02:49:44.441Z,99.90
2018-10-16T02:50:18.873Z,99.90
2018-10-16T02:50:52.745Z,99.90
2018-10-16T02:51:26.737Z,99.90
2018-10-16T02:52:01.204Z,99.90
2018-10-16T02:52:35.935Z,99.90
2018-10-16T02:53:10.029Z,99.90
2018-10-16T02:53:44.160Z,99.90
2018-10-16T02:54:18.019Z,99.90
2018-10-16T02:54:51.972Z,99.90
2018-10-16T02:55:26.075Z,99.90
2018-10-16T02:55:59.899Z,99.90
2018-10-16T02:56:34.006Z,99.90
2018-10-16T02:57:08.177Z,99.90
2018-10-16T02:57:41.996Z,99.90
2018-10-16T02:58:16.175Z,99.90
2018-10-16T02:58:50.752Z,99.90
2018-10-16T02:59:25.154Z,99.90
2018-10-16T02:59:59.017Z,99.90
2018-10-16T03:00:33.497Z,99.80
2018-10-16T03:01:08.358Z,99.90
2018-10-16T03:01:42.445Z,99.90
2018-10-16T03:02:16.887Z,99.90
2018-10-16T03:02:51.084Z,99.90
2018-10-16T03:03:24.929Z,99.90
2018-10-16T03:03:59.111Z,99.80
2018-10-16T03:04:33.281Z,99.80
2018-10-16T03:05:07.487Z,99.90
2018-10-16T03:05:41.649Z,99.90
2018-10-16T03:06:15.885Z,99.90
2018-10-16T03:06:50.017Z,99.90
2018-10-16T03:07:24.139Z,99.90
2018-10-16T03:07:57.985Z,99.90
2018-10-16T03:08:31.853Z,99.90
2018-10-16T03:09:07.821Z,99.90
2018-10-16T03:09:42.275Z,99.90
2018-10-16T03:10:16.445Z,99.90
2018-10-16T03:10:50.619Z,99.90
2018-10-16T03:11:24.720Z,99.90
2018-10-16T03:11:58.867Z,99.90
2018-10-16T03:12:32.713Z,99.90
2018-10-16T03:13:06.603Z,99.90
2018-10-16T03:13:40.784Z,99.90
2018-10-16T03:14:15.007Z,99.90
2018-10-16T03:14:49.159Z,99.90
2018-10-16T03:15:23.321Z,99.90
2018-10-16T03:15:57.141Z,99.90
2018-10-16T03:16:30.972Z,99.90
2018-10-16T03:17:05.348Z,99.90
2018-10-16T03:17:39.858Z,99.90
2018-10-16T03:18:13.676Z,99.90
2018-10-16T03:18:47.779Z,99.90
2018-10-16T03:19:21.985Z,99.90
2018-10-16T03:19:56.099Z,99.90
2018-10-16T03:20:30.257Z,99.90
2018-10-16T03:21:05.069Z,99.90
2018-10-16T03:21:46.053Z,99.90
2018-10-16T03:22:20.238Z,99.90
2018-10-16T03:22:54.049Z,99.90
2018-10-16T03:23:28.210Z,99.90
2018-10-16T03:24:02.340Z,99.90
2018-10-16T03:24:36.195Z,99.90
2018-10-16T03:25:12.123Z,99.90
2018-10-16T03:25:46.282Z,99.90
2018-10-16T03:26:20.147Z,99.90
2018-10-16T03:26:54.688Z,99.90
2018-10-16T03:27:29.182Z,99.90
2018-10-16T03:28:05.145Z,99.90
2018-10-16T03:28:39.475Z,99.90
2018-10-16T03:29:13.340Z,99.90
2018-10-16T03:29:47.544Z,99.90
2018-10-16T03:30:22.073Z,99.90
2018-10-16T03:30:56.502Z,99.90
2018-10-16T03:31:30.355Z,99.90
2018-10-16T03:32:04.547Z,99.90
2018-10-16T03:32:39.196Z,99.90
2018-10-16T03:33:13.297Z,99.90
2018-10-16T03:33:47.805Z,99.90
2018-10-16T03:34:21.911Z,99.90
2018-10-16T03:34:55.777Z,99.90
2018-10-16T03:35:29.591Z,99.90
2018-10-16T03:36:03.766Z,99.90
2018-10-16T03:36:38.302Z,99.90
2018-10-16T03:37:12.133Z,99.90
2018-10-16T03:37:46.311Z,99.90
2018-10-16T03:38:20.113Z,99.90
2018-10-16T03:38:53.956Z,99.90
2018-10-16T03:39:27.791Z,99.90
2018-10-16T03:40:01.655Z,99.90
2018-10-16T03:40:35.486Z,99.90
2018-10-16T03:41:09.600Z,99.90
2018-10-16T03:41:44.108Z,99.90
2018-10-16T03:42:17.937Z,99.90
2018-10-16T03:42:51.780Z,99.90
2018-10-16T03:43:25.911Z,99.90
2018-10-16T03:44:01.805Z,99.90
2018-10-16T03:44:35.991Z,99.90
2018-10-16T03:45:11.368Z,99.90
2018-10-16T03:45:45.533Z,99.90
2018-10-16T03:46:19.357Z,99.90
2018-10-16T03:46:53.212Z,99.90
2018-10-16T03:47:27.389Z,99.90
2018-10-16T03:48:01.557Z,99.90
2018-10-16T03:48:35.726Z,99.90
2018-10-16T03:49:10.842Z,99.90
2018-10-16T03:49:44.692Z,99.90
2018-10-16T03:50:19.217Z,99.90
2018-10-16T03:50:53.488Z,99.90
2018-10-16T03:51:27.312Z,99.90
2018-10-16T03:52:01.511Z,99.90
2018-10-16T03:52:35.613Z,99.90
2018-10-16T03:53:09.462Z,99.90
2018-10-16T03:54:46.526Z,99.90
2018-10-16T03:55:20.375Z,99.90
2018-10-16T03:55:54.169Z,99.90
2018-10-16T03:56:28.618Z,99.90
2018-10-16T03:57:03.059Z,99.90
2018-10-16T03:57:37.761Z,99.90
2018-10-16T03:58:51.923Z,99.90
2018-10-16T03:59:25.808Z,99.90
2018-10-16T03:59:59.717Z,99.90
2018-10-16T04:00:33.904Z,99.90
2018-10-16T04:01:08.026Z,99.90
2018-10-16T04:01:42.477Z,99.90
2018-10-16T04:02:16.608Z,99.90
2018-10-16T04:02:50.426Z,99.90
2018-10-16T04:03:24.364Z,99.90
2018-10-16T04:03:58.820Z,99.90
2018-10-16T04:04:32.665Z,99.90
2018-10-16T04:05:06.491Z,99.90
2018-10-16T04:05:40.364Z,99.90
2018-10-16T04:06:14.193Z,99.90
2018-10-16T04:06:48.080Z,99.90
2018-10-16T04:07:22.115Z,99.90
2018-10-16T04:07:55.942Z,99.90
2018-10-16T04:08:29.771Z,99.90
2018-10-16T04:09:05.045Z,99.90
2018-10-16T04:09:39.864Z,99.90
2018-10-16T04:10:14.066Z,99.90
2018-10-16T04:10:48.214Z,99.90
2018-10-16T04:11:22.368Z,99.90
2018-10-16T04:11:56.220Z,99.90
2018-10-16T04:12:30.107Z,99.90
2018-10-16T04:13:03.937Z,99.90
2018-10-16T04:13:38.153Z,99.90
2018-10-16T04:14:12.283Z,99.90
2018-10-16T04:14:46.125Z,99.90
2018-10-16T04:15:20.349Z,99.90
2018-10-16T04:15:54.549Z,99.90
2018-10-16T04:16:28.633Z,99.90
2018-10-16T04:17:02.780Z,99.90
2018-10-16T04:17:36.941Z,99.90
2018-10-16T04:18:11.036Z,99.90
2018-10-16T04:18:45.206Z,99.90
2018-10-16T04:19:19.025Z,99.90
2018-10-16T04:19:53.332Z,99.90
2018-10-16T04:20:27.185Z,99.90
2018-10-16T04:21:01.339Z,99.90
2018-10-16T04:21:39.842Z,99.90
2018-10-16T04:22:14.011Z,99.90
2018-10-16T04:22:48.038Z,99.90
2018-10-16T04:23:22.400Z,99.90
2018-10-16T04:23:57.013Z,99.90
2018-10-16T04:24:31.121Z,99.90
2018-10-16T04:25:05.348Z,99.90
2018-10-16T04:25:39.186Z,99.90
2018-10-16T04:26:15.820Z,99.90
2018-10-16T04:26:49.960Z,99.90
2018-10-16T04:27:24.167Z,99.90
2018-10-16T04:27:58.261Z,99.90
2018-10-16T04:28:32.296Z,99.90
2018-10-16T04:29:06.859Z,99.90
2018-10-16T04:29:40.889Z,99.90
2018-10-16T04:30:15.345Z,99.90
2018-10-16T04:30:49.475Z,99.90
2018-10-16T04:31:23.663Z,99.90
2018-10-16T04:31:57.509Z,99.90
2018-10-16T04:32:31.321Z,99.90
2018-10-16T04:33:05.671Z,99.90
2018-10-16T04:33:40.023Z,99.90
2018-10-16T04:34:14.173Z,99.90
2018-10-16T04:34:47.984Z,99.90
2018-10-16T04:35:22.489Z,99.90
2018-10-16T04:35:56.574Z,99.90
2018-10-16T04:36:30.795Z,99.90
2018-10-16T04:37:04.968Z,99.90
2018-10-16T04:37:38.843Z,99.90
2018-10-16T04:38:13.276Z,99.90
2018-10-16T04:38:47.439Z,99.90
2018-10-16T04:39:21.547Z,99.90
2018-10-16T04:39:55.691Z,99.90
2018-10-16T04:40:29.523Z,99.90
2018-10-16T04:41:03.710Z,99.90
2018-10-16T04:41:37.938Z,99.90
2018-10-16T04:42:12.371Z,99.90
2018-10-16T04:42:46.503Z,99.90
2018-10-16T04:43:20.303Z,99.90
2018-10-16T04:43:54.982Z,99.90
2018-10-16T04:44:29.344Z,99.90
2018-10-16T04:45:11.857Z,99.90
2018-10-16T04:45:46.287Z,99.90
2018-10-16T04:46:20.392Z,99.90
2018-10-16T04:46:54.839Z,99.90
2018-10-16T04:47:29.279Z,99.90
2018-10-16T04:48:03.365Z,99.90
2018-10-16T04:48:37.225Z,99.90
2018-10-16T04:49:11.354Z,99.90
2018-10-16T04:49:45.857Z,99.90
2018-10-16T04:50:19.971Z,99.90
2018-10-16T04:50:53.856Z,99.90
2018-10-16T04:51:27.731Z,99.90
2018-10-16T04:52:01.573Z,99.90
2018-10-16T04:52:35.755Z,99.90
2018-10-16T04:53:09.843Z,99.90
2018-10-16T04:53:43.979Z,99.90
2018-10-16T04:54:18.097Z,99.90
2018-10-16T04:54:52.197Z,99.90
2018-10-16T04:55:26.389Z,99.90
2018-10-16T04:56:00.841Z,99.90
2018-10-16T04:56:34.724Z,99.90
2018-10-16T04:57:08.836Z,99.90
2018-10-16T04:57:42.966Z,99.90
2018-10-16T04:58:16.817Z,99.90
2018-10-16T04:58:50.668Z,99.90
2018-10-16T04:59:25.119Z,99.90
2018-10-16T04:59:59.239Z,99.90
2018-10-16T05:00:33.592Z,99.90
2018-10-16T05:01:08.473Z,99.90
2018-10-16T05:01:42.573Z,99.90
2018-10-16T05:02:16.798Z,99.90
2018-10-16T05:02:50.647Z,99.90
2018-10-16T05:03:25.081Z,99.90
2018-10-16T05:03:59.530Z,99.90
2018-10-16T05:04:33.853Z,99.90
2018-10-16T05:05:11.171Z,99.90
2018-10-16T05:05:45.927Z,99.90
2018-10-16T05:06:20.361Z,99.90
2018-10-16T05:06:54.464Z,99.90
2018-10-16T05:07:28.601Z,99.90
2018-10-16T05:08:03.341Z,99.90
2018-10-16T05:08:37.425Z,99.90
2018-10-16T05:09:11.566Z,99.90
2018-10-16T05:09:45.420Z,99.90
2018-10-16T05:10:20.414Z,99.90
2018-10-16T05:10:54.267Z,99.90
2018-10-16T05:11:28.141Z,99.90
2018-10-16T05:12:02.332Z,99.90
2018-10-16T05:12:36.229Z,99.90
2018-10-16T05:13:10.394Z,99.90
2018-10-16T05:13:44.425Z,99.90
2018-10-16T05:14:18.517Z,99.90
2018-10-16T05:14:53.605Z,99.90
2018-10-16T05:15:34.856Z,99.90
2018-10-16T05:16:09.004Z,99.90
2018-10-16T05:16:43.117Z,99.90
2018-10-16T05:17:16.967Z,99.90
2018-10-16T05:17:51.117Z,99.90
2018-10-16T05:18:25.255Z,99.90
2018-10-16T05:18:59.157Z,99.90
2018-10-16T05:19:33.717Z,99.90
2018-10-16T05:20:07.919Z,99.90
2018-10-16T05:20:42.453Z,99.90
2018-10-16T05:21:21.654Z,99.90
2018-10-16T05:24:28.215Z,99.90
2018-10-16T05:25:02.317Z,99.90
2018-10-16T05:25:36.437Z,99.90
2018-10-16T05:26:10.933Z,99.90
2018-10-16T05:26:45.711Z,99.90
2018-10-16T05:27:20.400Z,99.90
2018-10-16T05:27:54.960Z,99.90
2018-10-16T05:28:28.819Z,99.90
2018-10-16T05:29:02.921Z,99.90
2018-10-16T05:29:37.056Z,99.90
2018-10-16T05:30:11.469Z,99.90
2018-10-16T05:30:45.594Z,99.90
2018-10-16T05:31:20.235Z,99.90
2018-10-16T05:31:54.098Z,99.90
2018-10-16T05:32:28.211Z,99.90
2018-10-16T05:33:02.377Z,99.90
2018-10-16T05:33:36.831Z,99.90
2018-10-16T05:34:11.312Z,99.90
2018-10-16T05:34:45.425Z,99.90
2018-10-16T05:35:19.823Z,99.90
2018-10-16T05:35:53.917Z,99.90
2018-10-16T05:36:28.061Z,99.90
2018-10-16T05:37:02.190Z,99.90
2018-10-16T05:37:37.182Z,99.90
2018-10-16T05:38:11.333Z,99.90
2018-10-16T05:38:45.439Z,99.90
2018-10-16T05:39:19.543Z,99.90
2018-10-16T05:39:53.878Z,99.90
2018-10-16T05:40:27.985Z,99.90
2018-10-16T05:41:02.126Z,99.90
2018-10-16T05:41:36.353Z,99.90
2018-10-16T05:42:10.473Z,99.90
2018-10-16T05:42:44.585Z,99.90
2018-10-16T05:43:18.681Z,99.90
2018-10-16T05:43:53.211Z,99.90
2018-10-16T05:44:27.711Z,99.90
2018-10-16T05:45:02.045Z,99.90
2018-10-16T05:45:39.417Z,99.90
2018-10-16T05:46:13.525Z,99.90
2018-10-16T05:46:47.628Z,99.90
2018-10-16T05:47:21.709Z,99.90
2018-10-16T05:47:55.767Z,99.90
2018-10-16T05:48:29.866Z,99.90
2018-10-16T05:49:04.230Z,99.90
2018-10-16T05:49:38.349Z,99.90
2018-10-16T05:50:13.337Z,99.90
2018-10-16T05:50:47.441Z,99.90
2018-10-16T05:51:21.533Z,99.90
2018-10-16T05:51:55.981Z,99.90
2018-10-16T05:52:30.453Z,99.90
2018-10-16T05:53:05.237Z,99.90
2018-10-16T05:53:39.777Z,99.90
2018-10-16T05:54:14.669Z,99.90
2018-10-16T05:54:48.663Z,99.90
2018-10-16T05:55:23.127Z,99.90
2018-10-16T05:56:00.992Z,99.90
2018-10-16T05:56:35.432Z,99.90
2018-10-16T05:57:09.547Z,99.90
2018-10-16T05:57:43.733Z,99.90
2018-10-16T05:58:17.555Z,99.90
2018-10-16T05:58:51.375Z,99.90
2018-10-16T05:59:28.336Z,99.90
2018-10-16T06:00:15.139Z,99.90
2018-10-16T06:00:49.238Z,99.90
2018-10-16T06:01:23.378Z,99.90
2018-10-16T06:01:57.675Z,99.90
2018-10-16T06:02:32.089Z,99.90
2018-10-16T06:03:06.457Z,99.90
2018-10-16T06:03:40.595Z,99.90
2018-10-16T06:04:14.793Z,99.90
2018-10-16T06:04:48.719Z,99.90
2018-10-16T06:05:23.515Z,99.90
2018-10-16T06:05:58.075Z,99.90
2018-10-16T06:06:32.525Z,99.90
2018-10-16T06:07:07.610Z,99.90
2018-10-16T06:07:43.229Z,99.90
2018-10-16T06:08:17.687Z,99.90
2018-10-16T06:08:51.981Z,99.90
2018-10-16T06:09:26.107Z,99.90
2018-10-16T06:10:00.189Z,99.90
2018-10-16T06:10:35.010Z,99.90
2018-10-16T06:11:09.259Z,99.90
2018-10-16T06:11:43.362Z,99.90
2018-10-16T06:12:17.513Z,99.90
2018-10-16T06:12:51.481Z,99.90
2018-10-16T06:13:25.567Z,99.90
2018-10-16T06:13:59.679Z,99.90
2018-10-16T06:14:33.778Z,99.90
2018-10-16T06:15:09.081Z,99.90
2018-10-16T06:15:42.892Z,99.90
2018-10-16T06:16:16.989Z,99.90
2018-10-16T06:16:50.943Z,99.90
2018-10-16T06:17:25.023Z,99.90
2018-10-16T06:17:58.845Z,99.90
2018-10-16T06:18:32.669Z,99.90
2018-10-16T06:19:07.121Z,99.90
2018-10-16T06:19:41.225Z,99.90
2018-10-16T06:20:15.744Z,99.90
2018-10-16T06:20:50.530Z,99.90
2018-10-16T06:21:24.933Z,99.90
2018-10-16T06:21:59.111Z,99.90
2018-10-16T06:22:33.281Z,99.90
2018-10-16T06:23:07.456Z,99.90
2018-10-16T06:23:41.622Z,99.90
2018-10-16T06:24:15.490Z,99.90
2018-10-16T06:24:49.863Z,99.90
2018-10-16T06:25:24.049Z,99.90
2018-10-16T06:25:58.405Z,99.90
2018-10-16T06:26:32.579Z,99.90
2018-10-16T06:27:06.913Z,99.90
2018-10-16T06:27:42.101Z,99.90
2018-10-16T06:28:21.806Z,99.90
2018-10-16T06:28:56.373Z,99.90
2018-10-16T06:29:30.298Z,99.90
2018-10-16T06:30:04.228Z,99.90
2018-10-16T06:30:38.277Z,99.90
2018-10-16T06:31:12.418Z,99.90
2018-10-16T06:31:46.241Z,99.90
2018-10-16T06:32:20.417Z,99.90
2018-10-16T06:32:54.573Z,99.90
2018-10-16T06:33:29.807Z,99.90
2018-10-16T06:34:03.968Z,99.90
2018-10-16T06:34:37.963Z,99.90
2018-10-16T06:35:12.476Z,99.90
2018-10-16T06:35:46.688Z,99.90
2018-10-16T06:36:21.592Z,99.90
2018-10-16T06:36:55.415Z,99.90
2018-10-16T06:37:30.452Z,99.90
2018-10-16T06:38:05.050Z,99.90
2018-10-16T06:38:39.493Z,99.90
2018-10-16T06:39:13.332Z,99.90
2018-10-16T06:39:47.157Z,99.90
2018-10-16T06:40:21.061Z,99.90
2018-10-16T06:40:55.034Z,99.90
2018-10-16T06:41:29.297Z,99.90
2018-10-16T06:42:03.734Z,99.90
2018-10-16T06:42:37.935Z,99.90
2018-10-16T06:43:12.115Z,99.90
2018-10-16T06:43:45.995Z,99.90
2018-10-16T06:44:20.300Z,99.90
2018-10-16T06:44:55.350Z,99.90
2018-10-16T06:45:29.292Z,99.90
2018-10-16T06:46:03.627Z,99.90
2018-10-16T06:46:37.516Z,99.90
2018-10-16T06:47:11.954Z,99.90
2018-10-16T06:47:46.068Z,99.90
2018-10-16T06:48:20.700Z,99.90
2018-10-16T06:48:54.906Z,99.90
2018-10-16T06:49:28.776Z,99.90
2018-10-16T06:50:02.602Z,99.90
2018-10-16T06:50:36.646Z,99.90
2018-10-16T06:51:10.563Z,99.90
2018-10-16T06:51:44.382Z,99.90
2018-10-16T06:52:18.892Z,99.90
2018-10-16T06:52:52.711Z,99.90
2018-10-16T06:53:26.614Z,99.90
2018-10-16T06:54:00.910Z,99.90
2018-10-16T06:54:34.814Z,99.90
2018-10-16T06:55:08.915Z,99.90
2018-10-16T06:55:43.242Z,99.90
2018-10-16T06:56:17.058Z,99.90
2018-10-16T06:56:50.925Z,99.90
2018-10-16T06:57:24.755Z,99.90
2018-10-16T06:57:58.926Z,99.90
2018-10-16T06:58:33.141Z,99.90
2018-10-16T06:59:07.281Z,99.90
2018-10-16T06:59:41.165Z,99.90
2018-10-16T07:00:15.116Z,99.90
2018-10-16T07:00:49.080Z,99.90
2018-10-16T07:01:23.270Z,99.90
2018-10-16T07:01:57.112Z,99.90
2018-10-16T07:02:30.941Z,99.90
2018-10-16T07:03:06.059Z,99.90
2018-10-16T07:03:40.018Z,99.90
2018-10-16T07:04:13.866Z,99.90
2018-10-16T07:04:47.705Z,99.90
2018-10-16T07:05:21.812Z,99.90
2018-10-16T07:05:55.688Z,99.90
2018-10-16T07:06:29.581Z,99.90
2018-10-16T07:07:04.291Z,99.90
2018-10-16T07:07:38.400Z,99.90
2018-10-16T07:08:12.225Z,99.90
2018-10-16T07:08:46.154Z,99.90
2018-10-16T07:09:19.997Z,99.90
2018-10-16T07:09:53.874Z,99.90
2018-10-16T07:10:28.058Z,99.90
2018-10-16T07:11:02.200Z,99.90
2018-10-16T07:11:37.748Z,99.90
2018-10-16T07:12:11.586Z,99.90
2018-10-16T07:12:46.128Z,99.90
2018-10-16T07:13:20.280Z,99.90
2018-10-16T07:13:54.740Z,99.80
2018-10-16T07:14:29.168Z,99.70
2018-10-16T07:15:03.095Z,99.70
2018-10-16T07:15:37.125Z,99.60
2018-10-16T07:16:11.320Z,99.50
2018-10-16T07:16:45.500Z,99.50
2018-10-16T07:17:19.332Z,99.40
2018-10-16T07:17:53.176Z,99.50
2018-10-16T07:18:27.118Z,99.50
2018-10-16T07:19:01.461Z,99.50
2018-10-16T07:19:35.616Z,99.60
2018-10-16T07:20:10.571Z,99.60
2018-10-16T07:20:44.384Z,99.70
2018-10-16T07:21:18.321Z,99.80
2018-10-16T07:21:52.704Z,99.80
2018-10-16T07:22:26.875Z,99.80
2018-10-16T07:23:00.703Z,99.80
2018-10-16T07:23:34.644Z,99.60
2018-10-16T07:24:09.261Z,99.50
2018-10-16T07:24:43.744Z,99.30
2018-10-16T07:25:17.568Z,99.20